This is the latest recevied weather packets stored in our database for station/object K4IR. If no packets are shown the sender has not sent any weather packets the latest 1 day(s).
| Time | Temp. | Humidity | Pressure | Rain* | Wind** | Luminosity | Snow |
|---|---|---|---|---|---|---|---|
| 1778001590 | 24.44° C | 58% | 1018.5 hPa | 0 mm | 0.45 m/s, 97° | 930 W/m² | - |
| 1778000989 | 23.33° C | 60% | 1018.4 hPa | 0 mm | 0.45 m/s, 108° | 983 W/m² | - |
| 1778000388 | 22.78° C | 60% | 1018.7 hPa | 0 mm | 0.45 m/s, 64° | 740 W/m² | - |
| 1777999785 | 24.44° C | 55% | 1018.7 hPa | 0 mm | 1.34 m/s, 319° | 918 W/m² | - |
| 1777999186 | 25° C | 55% | 1018.9 hPa | 0 mm | 0.89 m/s, 33° | 210 W/m² | - |
| 1777998583 | 24.44° C | 56% | 1019 hPa | 0 mm | 0.89 m/s, 342° | 907 W/m² | - |
| 1777997981 | 24.44° C | 56% | 1018.6 hPa | 0 mm | 0.45 m/s, 76° | 522 W/m² | - |
| 1777997382 | 23.89° C | 57% | 1019.1 hPa | 0 mm | 1.34 m/s, 38° | 228 W/m² | - |
| 1777996782 | 22.78° C | 61% | 1019 hPa | 0 mm | 0.89 m/s, 39° | 870 W/m² | - |
| 1777996181 | 22.78° C | 58% | 1019.2 hPa | 0 mm | 1.79 m/s, 12° | 487 W/m² | - |
| 1777995579 | 22.78° C | 59% | 1019.1 hPa | 0 mm | 1.79 m/s, 11° | 747 W/m² | - |
| 1777994974 | 23.33° C | 56% | 1018.8 hPa | 0 mm | 0.45 m/s, 62° | 117 W/m² | - |
| 1777994371 | 22.78° C | 62% | 1019 hPa | 0 mm | 0.45 m/s, 91° | 411 W/m² | - |
| 1777993771 | 22.78° C | 61% | 1019 hPa | 0 mm | 0.89 m/s, 69° | 141 W/m² | - |
| 1777993167 | 22.22° C | 63% | 1018.9 hPa | 0 mm | 0.89 m/s, 56° | 242 W/m² | - |
| 1777992563 | 22.22° C | 61% | 1019 hPa | 0 mm | 1.79 m/s, 265° | 308 W/m² | - |
| 1777991958 | 22.78° C | 62% | 1018.9 hPa | 0 mm | 0 m/s | 124 W/m² | - |
| 1777991358 | 21.67° C | 65% | 1018.8 hPa | 0 mm | 0.89 m/s, 90° | 123 W/m² | - |
| 1777990753 | 22.22° C | 66% | 1019 hPa | 0 mm | 0.45 m/s, 77° | 122 W/m² | - |
| 1777990153 | 21.67° C | 67% | 1018.7 hPa | 0 mm | 0.45 m/s, 81° | 111 W/m² | - |
| 1777989552 | 21.11° C | 69% | 1018.6 hPa | 0 mm | 0 m/s | 116 W/m² | - |
| 1777988951 | 21.11° C | 69% | 1018.9 hPa | 0 mm | 0 m/s | 88 W/m² | - |
| 1777988349 | 21.11° C | 69% | 1018.7 hPa | 0 mm | 0.45 m/s, 69° | 104 W/m² | - |
| 1777987748 | 21.67° C | 67% | 1018.5 hPa | 0 mm | 0.45 m/s, 126° | 187 W/m² | - |
| 1777987149 | 21.11° C | 69% | 1018.7 hPa | 0 mm | 0.45 m/s, 145° | 200 W/m² | - |
* Rain latest hour (hover to see other rain measurements)
** Current wind speed in m/s (hover to see current wind gust speed)